Croeserw, United Kingdom
Current Conditions -  °F | °C
As of 9:50 AM on Sunday 21 Dec 2014 (Local Time) from EGDX Reporting Station
Rain Showers Rain Showers  
Wind Chill: 41°   Ceiling: 2800
Heat Index: 48°   Visibility: 6mi
Dew Point: 46°   Wind: 23mph
Humidity: 93%   Direction: 260°W
Pressure: 30.33"   Gusts: NA
Location:  51.64°N, 3.64°W
Report Text: EGDX 210950Z AUTO 26020KT 9999 -SHRA FEW012/// SCT018/// BKN028/// 09/08 Q1027
Loading
Personal Weather Stations






























Interactive Weather Map New forecast layout! Learn more

10-Day Weather Forecast

Advertisements
Track Severe Weather on mobile